sensor_id;sensor_type;location;lat;lon;timestamp;P1;P2;P0
65383;PMS5003;51986;52.788;41.368;2023-08-24T00:00:21;37.00;31.00;24.25
65383;PMS5003;51986;52.788;41.368;2023-08-24T00:02:49;37.00;31.00;25.50
65383;PMS5003;51986;52.788;41.368;2023-08-24T00:05:16;37.00;31.50;25.00
65383;PMS5003;51986;52.788;41.368;2023-08-24T00:07:43;36.00;31.00;25.00
65383;PMS5003;51986;52.788;41.368;2023-08-24T00:10:10;39.00;32.25;26.00
65383;PMS5003;51986;52.788;41.368;2023-08-24T00:12:37;37.00;31.00;25.00
65383;PMS5003;51986;52.788;41.368;2023-08-24T00:15:04;37.00;31.00;25.00
65383;PMS5003;51986;52.788;41.368;2023-08-24T00:17:34;39.50;32.00;25.00
65383;PMS5003;51986;52.788;41.368;2023-08-24T00:20:01;37.00;31.00;24.00
65383;PMS5003;51986;52.788;41.368;2023-08-24T00:22:28;36.00;31.00;24.00
65383;PMS5003;51986;52.788;41.368;2023-08-24T00:24:55;36.00;30.75;24.00
65383;PMS5003;51986;52.788;41.368;2023-08-24T00:27:22;36.00;30.00;24.00
65383;PMS5003;51986;52.788;41.368;2023-08-24T00:29:49;36.00;30.00;23.50
65383;PMS5003;51986;52.788;41.368;2023-08-24T00:32:16;36.00;31.00;24.00
65383;PMS5003;51986;52.788;41.368;2023-08-24T00:34:43;36.00;31.00;23.00
65383;PMS5003;51986;52.788;41.368;2023-08-24T00:37:11;37.25;32.00;25.25
65383;PMS5003;51986;52.788;41.368;2023-08-24T00:39:38;36.75;31.00;24.75
65383;PMS5003;51986;52.788;41.368;2023-08-24T00:42:05;37.00;31.00;24.00
65383;PMS5003;51986;52.788;41.368;2023-08-24T00:44:32;37.00;31.00;24.00
65383;PMS5003;51986;52.788;41.368;2023-08-24T00:46:59;37.00;30.25;24.00
65383;PMS5003;51986;52.788;41.368;2023-08-24T00:49:28;37.75;31.00;24.00
65383;PMS5003;51986;52.788;41.368;2023-08-24T00:51:55;38.00;31.00;25.00
65383;PMS5003;51986;52.788;41.368;2023-08-24T00:54:22;38.00;31.00;24.75
65383;PMS5003;51986;52.788;41.368;2023-08-24T00:56:50;37.00;31.00;24.00
65383;PMS5003;51986;52.788;41.368;2023-08-24T00:59:17;36.50;31.00;24.00
65383;PMS5003;51986;52.788;41.368;2023-08-24T01:01:45;39.00;33.00;25.00
65383;PMS5003;51986;52.788;41.368;2023-08-24T01:04:13;37.00;31.00;24.25
65383;PMS5003;51986;52.788;41.368;2023-08-24T01:06:40;36.00;31.00;24.00
65383;PMS5003;51986;52.788;41.368;2023-08-24T01:09:07;37.00;31.00;24.00
65383;PMS5003;51986;52.788;41.368;2023-08-24T01:17:31;38.00;32.00;25.00
65383;PMS5003;51986;52.788;41.368;2023-08-24T01:20:01;36.00;31.00;24.00
65383;PMS5003;51986;52.788;41.368;2023-08-24T01:25:30;36.00;30.00;24.00
65383;PMS5003;51986;52.788;41.368;2023-08-24T01:28:04;35.00;29.00;24.00
65383;PMS5003;51986;52.788;41.368;2023-08-24T01:30:33;35.00;29.00;23.00
65383;PMS5003;51986;52.788;41.368;2023-08-24T01:33:04;37.00;30.00;24.00
65383;PMS5003;51986;52.788;41.368;2023-08-24T01:35:31;36.00;31.00;24.00
65383;PMS5003;51986;52.788;41.368;2023-08-24T01:37:58;37.00;32.00;25.00
65383;PMS5003;51986;52.788;41.368;2023-08-24T01:40:30;37.00;31.00;24.00
65383;PMS5003;51986;52.788;41.368;2023-08-24T01:43:07;38.00;31.00;24.00
65383;PMS5003;51986;52.788;41.368;2023-08-24T01:45:36;37.00;31.00;24.00
65383;PMS5003;51986;52.788;41.368;2023-08-24T01:48:05;36.00;30.00;23.00
65383;PMS5003;51986;52.788;41.368;2023-08-24T01:50:33;37.00;31.50;25.00
65383;PMS5003;51986;52.788;41.368;2023-08-24T01:53:01;36.25;31.00;24.00
65383;PMS5003;51986;52.788;41.368;2023-08-24T01:55:29;36.50;31.00;24.00
65383;PMS5003;51986;52.788;41.368;2023-08-24T01:57:56;36.00;31.00;24.00
65383;PMS5003;51986;52.788;41.368;2023-08-24T02:00:24;36.00;30.00;24.00
65383;PMS5003;51986;52.788;41.368;2023-08-24T02:02:51;36.50;31.00;24.00
65383;PMS5003;51986;52.788;41.368;2023-08-24T02:05:18;38.50;32.50;26.00
65383;PMS5003;51986;52.788;41.368;2023-08-24T02:07:50;39.00;32.75;26.00
65383;PMS5003;51986;52.788;41.368;2023-08-24T02:10:18;36.00;31.00;25.00
65383;PMS5003;51986;52.788;41.368;2023-08-24T02:12:45;38.50;32.00;26.00
65383;PMS5003;51986;52.788;41.368;2023-08-24T02:15:12;39.00;33.00;26.00
65383;PMS5003;51986;52.788;41.368;2023-08-24T02:17:39;36.00;31.00;24.00
65383;PMS5003;51986;52.788;41.368;2023-08-24T02:20:06;37.50;30.25;24.00
65383;PMS5003;51986;52.788;41.368;2023-08-24T02:22:34;37.00;31.00;25.00
65383;PMS5003;51986;52.788;41.368;2023-08-24T02:25:01;38.00;31.50;25.00
65383;PMS5003;51986;52.788;41.368;2023-08-24T02:27:28;38.00;32.00;25.00
65383;PMS5003;51986;52.788;41.368;2023-08-24T02:29:56;38.00;31.00;25.00
65383;PMS5003;51986;52.788;41.368;2023-08-24T02:32:23;38.00;31.00;25.00
65383;PMS5003;51986;52.788;41.368;2023-08-24T02:34:50;37.00;31.00;25.00
65383;PMS5003;51986;52.788;41.368;2023-08-24T02:37:17;39.00;32.00;26.00
65383;PMS5003;51986;52.788;41.368;2023-08-24T02:39:44;38.00;31.00;25.00
65383;PMS5003;51986;52.788;41.368;2023-08-24T02:42:11;38.00;31.00;25.00
65383;PMS5003;51986;52.788;41.368;2023-08-24T02:44:38;38.50;32.00;25.00
65383;PMS5003;51986;52.788;41.368;2023-08-24T02:47:05;38.00;32.00;25.00
65383;PMS5003;51986;52.788;41.368;2023-08-24T02:49:32;36.00;31.00;24.00
65383;PMS5003;51986;52.788;41.368;2023-08-24T02:52:02;36.00;31.00;24.00
65383;PMS5003;51986;52.788;41.368;2023-08-24T02:54:29;36.00;31.00;24.00
65383;PMS5003;51986;52.788;41.368;2023-08-24T02:56:56;36.00;31.00;24.00
65383;PMS5003;51986;52.788;41.368;2023-08-24T02:59:23;37.00;32.00;25.00
65383;PMS5003;51986;52.788;41.368;2023-08-24T03:01:50;37.00;31.00;24.00
65383;PMS5003;51986;52.788;41.368;2023-08-24T03:04:17;39.00;33.00;26.00
65383;PMS5003;51986;52.788;41.368;2023-08-24T03:06:44;38.00;31.50;24.50
65383;PMS5003;51986;52.788;41.368;2023-08-24T03:09:11;37.00;31.00;25.00
65383;PMS5003;51986;52.788;41.368;2023-08-24T03:11:39;38.00;32.00;25.00
65383;PMS5003;51986;52.788;41.368;2023-08-24T03:14:06;40.50;34.00;26.50
65383;PMS5003;51986;52.788;41.368;2023-08-24T03:16:34;40.00;33.00;26.00
65383;PMS5003;51986;52.788;41.368;2023-08-24T03:19:03;38.00;32.00;26.00
65383;PMS5003;51986;52.788;41.368;2023-08-24T03:21:31;39.00;33.00;25.00
65383;PMS5003;51986;52.788;41.368;2023-08-24T03:23:58;39.00;33.00;25.00
65383;PMS5003;51986;52.788;41.368;2023-08-24T03:26:25;39.25;33.00;27.00
65383;PMS5003;51986;52.788;41.368;2023-08-24T03:28:53;39.50;33.00;27.00
65383;PMS5003;51986;52.788;41.368;2023-08-24T03:31:20;41.75;34.00;27.00
65383;PMS5003;51986;52.788;41.368;2023-08-24T03:33:47;42.00;34.00;27.00
65383;PMS5003;51986;52.788;41.368;2023-08-24T03:36:14;41.00;33.00;27.00
65383;PMS5003;51986;52.788;41.368;2023-08-24T03:38:44;41.00;34.00;27.00
65383;PMS5003;51986;52.788;41.368;2023-08-24T03:41:11;42.00;35.00;28.00
65383;PMS5003;51986;52.788;41.368;2023-08-24T03:43:38;42.00;34.00;27.00
65383;PMS5003;51986;52.788;41.368;2023-08-24T03:46:05;41.00;34.00;26.00
65383;PMS5003;51986;52.788;41.368;2023-08-24T03:48:32;40.25;34.00;26.00
65383;PMS5003;51986;52.788;41.368;2023-08-24T03:50:59;41.00;34.00;26.50
65383;PMS5003;51986;52.788;41.368;2023-08-24T03:53:26;42.25;34.00;27.00
65383;PMS5003;51986;52.788;41.368;2023-08-24T03:55:53;39.00;32.00;25.00
65383;PMS5003;51986;52.788;41.368;2023-08-24T03:58:21;41.00;33.00;26.00
65383;PMS5003;51986;52.788;41.368;2023-08-24T04:00:48;41.75;34.50;28.00
65383;PMS5003;51986;52.788;41.368;2023-08-24T04:03:15;41.00;34.00;28.00
65383;PMS5003;51986;52.788;41.368;2023-08-24T04:05:42;41.00;34.00;28.00
65383;PMS5003;51986;52.788;41.368;2023-08-24T04:08:09;41.00;33.00;27.00
65383;PMS5003;51986;52.788;41.368;2023-08-24T04:10:37;41.00;33.75;27.00
65383;PMS5003;51986;52.788;41.368;2023-08-24T04:13:04;41.00;34.00;26.00
65383;PMS5003;51986;52.788;41.368;2023-08-24T04:15:31;41.00;33.00;26.00
65383;PMS5003;51986;52.788;41.368;2023-08-24T04:17:58;41.00;35.00;27.00
65383;PMS5003;51986;52.788;41.368;2023-08-24T04:20:25;40.00;34.00;26.50
65383;PMS5003;51986;52.788;41.368;2023-08-24T04:22:52;43.00;35.50;29.00
65383;PMS5003;51986;52.788;41.368;2023-08-24T04:25:19;42.00;34.00;27.50
65383;PMS5003;51986;52.788;41.368;2023-08-24T04:27:46;44.00;36.00;27.75
65383;PMS5003;51986;52.788;41.368;2023-08-24T04:30:13;42.00;35.00;27.50
65383;PMS5003;51986;52.788;41.368;2023-08-24T04:32:41;41.00;34.00;26.75
65383;PMS5003;51986;52.788;41.368;2023-08-24T04:35:08;42.00;34.00;27.00
65383;PMS5003;51986;52.788;41.368;2023-08-24T04:37:35;45.75;36.00;29.00
65383;PMS5003;51986;52.788;41.368;2023-08-24T04:40:02;45.00;36.00;29.00
65383;PMS5003;51986;52.788;41.368;2023-08-24T04:42:30;45.00;36.00;30.00
65383;PMS5003;51986;52.788;41.368;2023-08-24T04:44:57;45.00;36.00;29.00
65383;PMS5003;51986;52.788;41.368;2023-08-24T04:47:26;45.50;36.25;30.00
65383;PMS5003;51986;52.788;41.368;2023-08-24T04:49:53;45.00;37.00;30.00
65383;PMS5003;51986;52.788;41.368;2023-08-24T04:52:20;44.75;37.00;29.00
65383;PMS5003;51986;52.788;41.368;2023-08-24T04:54:47;45.00;35.00;28.50
65383;PMS5003;51986;52.788;41.368;2023-08-24T04:57:14;45.00;35.75;28.00
65383;PMS5003;51986;52.788;41.368;2023-08-24T04:59:41;47.00;37.00;29.00
65383;PMS5003;51986;52.788;41.368;2023-08-24T05:02:08;46.00;38.00;31.00
65383;PMS5003;51986;52.788;41.368;2023-08-24T05:04:36;46.00;37.00;31.00
65383;PMS5003;51986;52.788;41.368;2023-08-24T05:07:03;46.00;37.00;31.00
65383;PMS5003;51986;52.788;41.368;2023-08-24T05:09:30;46.00;37.00;31.25
65383;PMS5003;51986;52.788;41.368;2023-08-24T05:11:57;48.50;39.00;32.00
65383;PMS5003;51986;52.788;41.368;2023-08-24T05:14:24;48.00;38.00;32.00
65383;PMS5003;51986;52.788;41.368;2023-08-24T05:16:51;48.00;38.00;31.00
65383;PMS5003;51986;52.788;41.368;2023-08-24T05:19:18;46.00;38.00;31.00
65383;PMS5003;51986;52.788;41.368;2023-08-24T05:21:44;46.00;37.00;30.00
65383;PMS5003;51986;52.788;41.368;2023-08-24T05:24:11;45.00;36.75;29.75
65383;PMS5003;51986;52.788;41.368;2023-08-24T05:26:38;49.50;40.00;31.00
65383;PMS5003;51986;52.788;41.368;2023-08-24T05:29:05;47.00;38.00;31.00
65383;PMS5003;51986;52.788;41.368;2023-08-24T05:31:32;48.25;39.00;32.00
65383;PMS5003;51986;52.788;41.368;2023-08-24T05:33:59;47.00;37.00;30.75
65383;PMS5003;51986;52.788;41.368;2023-08-24T05:36:26;46.75;37.25;31.25
65383;PMS5003;51986;52.788;41.368;2023-08-24T05:38:53;45.75;37.00;30.00
65383;PMS5003;51986;52.788;41.368;2023-08-24T05:41:31;45.75;37.00;31.00
65383;PMS5003;51986;52.788;41.368;2023-08-24T05:43:58;46.00;37.00;31.00
65383;PMS5003;51986;52.788;41.368;2023-08-24T05:46:25;45.00;36.75;30.00
65383;PMS5003;51986;52.788;41.368;2023-08-24T05:48:52;46.50;38.00;30.00
65383;PMS5003;51986;52.788;41.368;2023-08-24T05:51:19;48.00;38.00;31.00
65383;PMS5003;51986;52.788;41.368;2023-08-24T05:53:46;46.00;37.00;31.00
65383;PMS5003;51986;52.788;41.368;2023-08-24T05:56:13;46.00;37.00;30.00
65383;PMS5003;51986;52.788;41.368;2023-08-24T05:58:40;45.00;37.00;29.25
65383;PMS5003;51986;52.788;41.368;2023-08-24T06:01:07;49.00;39.50;32.00
65383;PMS5003;51986;52.788;41.368;2023-08-24T06:03:34;47.00;38.00;30.50
65383;PMS5003;51986;52.788;41.368;2023-08-24T06:06:02;47.00;37.00;30.00
65383;PMS5003;51986;52.788;41.368;2023-08-24T06:08:30;47.00;37.50;30.00
65383;PMS5003;51986;52.788;41.368;2023-08-24T06:10:57;48.00;38.00;31.00
65383;PMS5003;51986;52.788;41.368;2023-08-24T06:13:25;47.00;37.50;31.00
65383;PMS5003;51986;52.788;41.368;2023-08-24T06:15:52;47.00;38.00;32.00
65383;PMS5003;51986;52.788;41.368;2023-08-24T06:18:19;47.00;38.00;31.00
65383;PMS5003;51986;52.788;41.368;2023-08-24T06:20:47;47.50;38.00;31.50
65383;PMS5003;51986;52.788;41.368;2023-08-24T06:23:17;47.75;38.00;32.00
65383;PMS5003;51986;52.788;41.368;2023-08-24T06:25:45;49.00;38.00;32.00
65383;PMS5003;51986;52.788;41.368;2023-08-24T06:28:12;49.00;40.00;33.00
65383;PMS5003;51986;52.788;41.368;2023-08-24T06:30:40;47.00;38.50;32.00
65383;PMS5003;51986;52.788;41.368;2023-08-24T06:33:08;47.00;39.00;30.00
65383;PMS5003;51986;52.788;41.368;2023-08-24T06:35:36;48.00;39.00;31.00
65383;PMS5003;51986;52.788;41.368;2023-08-24T06:38:03;47.00;38.00;30.25
65383;PMS5003;51986;52.788;41.368;2023-08-24T06:40:30;50.00;39.00;33.00
65383;PMS5003;51986;52.788;41.368;2023-08-24T06:42:57;47.00;37.00;31.00
65383;PMS5003;51986;52.788;41.368;2023-08-24T06:45:24;46.00;37.25;30.00
65383;PMS5003;51986;52.788;41.368;2023-08-24T06:47:51;46.00;37.75;30.00
65383;PMS5003;51986;52.788;41.368;2023-08-24T06:50:19;46.00;38.00;30.00
65383;PMS5003;51986;52.788;41.368;2023-08-24T06:52:46;46.00;37.00;31.00
65383;PMS5003;51986;52.788;41.368;2023-08-24T06:55:14;46.00;36.50;31.00
65383;PMS5003;51986;52.788;41.368;2023-08-24T06:57:41;46.00;37.00;30.00
65383;PMS5003;51986;52.788;41.368;2023-08-24T07:00:08;44.00;37.00;29.00
65383;PMS5003;51986;52.788;41.368;2023-08-24T07:02:36;46.00;37.00;30.00
65383;PMS5003;51986;52.788;41.368;2023-08-24T07:05:03;45.00;36.50;30.00
65383;PMS5003;51986;52.788;41.368;2023-08-24T07:07:31;44.00;36.00;30.25
65383;PMS5003;51986;52.788;41.368;2023-08-24T07:09:58;45.75;37.00;30.00
65383;PMS5003;51986;52.788;41.368;2023-08-24T07:12:25;43.50;36.00;30.00
65383;PMS5003;51986;52.788;41.368;2023-08-24T07:14:52;44.00;35.00;29.00
65383;PMS5003;51986;52.788;41.368;2023-08-24T07:17:19;42.25;35.00;29.00
65383;PMS5003;51986;52.788;41.368;2023-08-24T07:19:46;41.00;34.50;28.50
65383;PMS5003;51986;52.788;41.368;2023-08-24T07:22:13;41.50;34.00;27.00
65383;PMS5003;51986;52.788;41.368;2023-08-24T07:24:40;42.00;34.00;27.00
65383;PMS5003;51986;52.788;41.368;2023-08-24T07:27:12;48.00;38.00;31.00
65383;PMS5003;51986;52.788;41.368;2023-08-24T07:29:39;47.50;38.50;32.50
65383;PMS5003;51986;52.788;41.368;2023-08-24T07:32:06;46.00;37.00;31.00
65383;PMS5003;51986;52.788;41.368;2023-08-24T07:34:33;45.00;37.00;30.50
65383;PMS5003;51986;52.788;41.368;2023-08-24T07:37:00;44.00;37.00;30.50
65383;PMS5003;51986;52.788;41.368;2023-08-24T07:39:27;44.00;36.00;30.00
65383;PMS5003;51986;52.788;41.368;2023-08-24T07:41:54;42.75;35.00;29.00
65383;PMS5003;51986;52.788;41.368;2023-08-24T07:44:21;42.50;35.00;29.00
65383;PMS5003;51986;52.788;41.368;2023-08-24T07:46:48;42.00;35.00;29.00
65383;PMS5003;51986;52.788;41.368;2023-08-24T07:49:15;44.75;37.00;31.00
65383;PMS5003;51986;52.788;41.368;2023-08-24T07:51:42;45.00;37.00;31.00
65383;PMS5003;51986;52.788;41.368;2023-08-24T07:54:09;44.00;37.00;31.00
65383;PMS5003;51986;52.788;41.368;2023-08-24T07:56:36;44.00;37.00;30.00
65383;PMS5003;51986;52.788;41.368;2023-08-24T07:59:03;44.00;36.00;29.00
65383;PMS5003;51986;52.788;41.368;2023-08-24T08:01:30;43.00;35.00;29.00
65383;PMS5003;51986;52.788;41.368;2023-08-24T08:03:57;42.00;35.00;29.00
65383;PMS5003;51986;52.788;41.368;2023-08-24T08:06:24;41.00;34.50;28.00
65383;PMS5003;51986;52.788;41.368;2023-08-24T08:08:51;41.50;34.50;28.00
65383;PMS5003;51986;52.788;41.368;2023-08-24T08:11:19;42.50;36.00;30.00
65383;PMS5003;51986;52.788;41.368;2023-08-24T08:13:45;41.00;35.00;28.00
65383;PMS5003;51986;52.788;41.368;2023-08-24T08:16:13;40.00;34.00;27.00
65383;PMS5003;51986;52.788;41.368;2023-08-24T08:18:40;39.50;34.00;27.00
65383;PMS5003;51986;52.788;41.368;2023-08-24T08:21:10;41.00;35.00;28.00
65383;PMS5003;51986;52.788;41.368;2023-08-24T08:23:41;42.00;35.00;29.00
65383;PMS5003;51986;52.788;41.368;2023-08-24T08:26:09;41.00;35.00;29.00
65383;PMS5003;51986;52.788;41.368;2023-08-24T08:28:38;42.00;35.00;29.00
65383;PMS5003;51986;52.788;41.368;2023-08-24T08:31:05;44.00;37.00;30.00
65383;PMS5003;51986;52.788;41.368;2023-08-24T08:33:33;41.25;35.25;29.00
65383;PMS5003;51986;52.788;41.368;2023-08-24T08:36:00;40.00;34.00;28.00
65383;PMS5003;51986;52.788;41.368;2023-08-24T08:38:27;41.50;35.25;29.75
65383;PMS5003;51986;52.788;41.368;2023-08-24T08:41:01;42.00;35.00;29.50
65383;PMS5003;51986;52.788;41.368;2023-08-24T08:43:30;42.00;35.00;29.25
65383;PMS5003;51986;52.788;41.368;2023-08-24T08:45:58;43.00;36.00;30.00
65383;PMS5003;51986;52.788;41.368;2023-08-24T08:48:27;43.00;36.00;29.25
65383;PMS5003;51986;52.788;41.368;2023-08-24T08:51:00;43.50;36.00;29.00
65383;PMS5003;51986;52.788;41.368;2023-08-24T08:53:27;45.75;37.25;30.75
65383;PMS5003;51986;52.788;41.368;2023-08-24T08:55:54;48.00;39.00;33.00
65383;PMS5003;51986;52.788;41.368;2023-08-24T08:58:21;44.50;37.00;31.00
65383;PMS5003;51986;52.788;41.368;2023-08-24T09:00:49;43.00;36.00;29.00
65383;PMS5003;51986;52.788;41.368;2023-08-24T09:03:18;42.00;35.00;29.00
65383;PMS5003;51986;52.788;41.368;2023-08-24T09:05:47;42.50;35.75;29.00
65383;PMS5003;51986;52.788;41.368;2023-08-24T09:08:17;43.00;36.00;29.75
65383;PMS5003;51986;52.788;41.368;2023-08-24T09:10:45;42.00;35.00;29.50
65383;PMS5003;51986;52.788;41.368;2023-08-24T09:13:12;40.50;34.00;28.00
65383;PMS5003;51986;52.788;41.368;2023-08-24T09:15:39;40.25;34.00;28.00
65383;PMS5003;51986;52.788;41.368;2023-08-24T09:18:07;40.50;34.00;27.00
65383;PMS5003;51986;52.788;41.368;2023-08-24T09:20:34;40.00;34.00;27.00
65383;PMS5003;51986;52.788;41.368;2023-08-24T09:23:01;40.00;33.25;27.00
65383;PMS5003;51986;52.788;41.368;2023-08-24T09:25:29;40.00;34.00;27.00
65383;PMS5003;51986;52.788;41.368;2023-08-24T09:27:56;40.50;34.00;27.50
65383;PMS5003;51986;52.788;41.368;2023-08-24T09:30:37;41.00;34.00;27.00
65383;PMS5003;51986;52.788;41.368;2023-08-24T09:33:09;42.00;35.75;29.00
65383;PMS5003;51986;52.788;41.368;2023-08-24T09:35:36;41.00;35.00;29.00
65383;PMS5003;51986;52.788;41.368;2023-08-24T09:38:20;41.00;34.00;28.00
65383;PMS5003;51986;52.788;41.368;2023-08-24T09:40:52;43.00;35.50;29.00
65383;PMS5003;51986;52.788;41.368;2023-08-24T09:43:20;42.25;36.00;28.00
65383;PMS5003;51986;52.788;41.368;2023-08-24T09:45:55;41.00;35.00;27.75
65383;PMS5003;51986;52.788;41.368;2023-08-24T09:48:23;43.00;35.00;28.00
65383;PMS5003;51986;52.788;41.368;2023-08-24T09:50:55;42.50;35.00;29.00
65383;PMS5003;51986;52.788;41.368;2023-08-24T09:53:23;43.00;36.00;29.00
65383;PMS5003;51986;52.788;41.368;2023-08-24T09:55:55;42.00;35.00;28.00
65383;PMS5003;51986;52.788;41.368;2023-08-24T09:58:26;41.00;34.00;28.00
65383;PMS5003;51986;52.788;41.368;2023-08-24T10:00:54;41.00;34.00;27.00
65383;PMS5003;51986;52.788;41.368;2023-08-24T10:03:25;41.00;35.00;28.00
65383;PMS5003;51986;52.788;41.368;2023-08-24T10:05:55;41.00;34.50;28.75
65383;PMS5003;51986;52.788;41.368;2023-08-24T10:08:32;41.00;35.00;28.00
65383;PMS5003;51986;52.788;41.368;2023-08-24T10:11:02;40.00;34.00;28.00
65383;PMS5003;51986;52.788;41.368;2023-08-24T10:13:36;40.00;34.00;27.00
65383;PMS5003;51986;52.788;41.368;2023-08-24T10:16:07;39.50;34.00;27.00
65383;PMS5003;51986;52.788;41.368;2023-08-24T10:18:36;41.00;34.75;28.00
65383;PMS5003;51986;52.788;41.368;2023-08-24T10:21:04;41.00;35.00;28.00
65383;PMS5003;51986;52.788;41.368;2023-08-24T10:23:31;40.00;34.00;27.00
65383;PMS5003;51986;52.788;41.368;2023-08-24T10:26:04;40.00;33.00;26.00
65383;PMS5003;51986;52.788;41.368;2023-08-24T10:28:34;40.00;33.00;26.00
65383;PMS5003;51986;52.788;41.368;2023-08-24T10:31:02;42.75;36.25;29.00
65383;PMS5003;51986;52.788;41.368;2023-08-24T10:33:30;42.00;35.00;28.00
65383;PMS5003;51986;52.788;41.368;2023-08-24T10:35:59;42.00;35.00;28.00
65383;PMS5003;51986;52.788;41.368;2023-08-24T10:38:27;43.00;36.00;29.00
65383;PMS5003;51986;52.788;41.368;2023-08-24T10:41:02;41.00;35.00;28.00
65383;PMS5003;51986;52.788;41.368;2023-08-24T10:43:33;42.00;35.00;29.00
65383;PMS5003;51986;52.788;41.368;2023-08-24T10:46:02;42.00;35.00;29.25
65383;PMS5003;51986;52.788;41.368;2023-08-24T10:48:30;43.00;35.00;29.00
65383;PMS5003;51986;52.788;41.368;2023-08-24T10:51:18;42.50;35.00;30.00
65383;PMS5003;51986;52.788;41.368;2023-08-24T10:53:46;42.75;36.00;30.00
65383;PMS5003;51986;52.788;41.368;2023-08-24T10:56:20;42.25;35.50;29.00
65383;PMS5003;51986;52.788;41.368;2023-08-24T10:58:48;43.00;35.00;29.00
65383;PMS5003;51986;52.788;41.368;2023-08-24T11:01:54;44.00;36.00;29.00
65383;PMS5003;51986;52.788;41.368;2023-08-24T11:04:22;43.00;35.00;29.00
65383;PMS5003;51986;52.788;41.368;2023-08-24T11:06:52;43.00;35.50;28.50
65383;PMS5003;51986;52.788;41.368;2023-08-24T11:09:24;41.00;35.00;29.00
65383;PMS5003;51986;52.788;41.368;2023-08-24T11:12:02;42.25;36.00;29.00
65383;PMS5003;51986;52.788;41.368;2023-08-24T11:14:30;42.50;35.00;29.00
65383;PMS5003;51986;52.788;41.368;2023-08-24T11:17:00;42.00;35.00;28.00
65383;PMS5003;51986;52.788;41.368;2023-08-24T11:19:47;42.00;35.00;27.00
65383;PMS5003;51986;52.788;41.368;2023-08-24T11:22:19;42.00;35.00;29.25
65383;PMS5003;51986;52.788;41.368;2023-08-24T11:24:46;43.00;36.00;30.00
65383;PMS5003;51986;52.788;41.368;2023-08-24T11:27:14;41.25;35.25;29.00
65383;PMS5003;51986;52.788;41.368;2023-08-24T11:29:41;40.25;34.25;28.00
65383;PMS5003;51986;52.788;41.368;2023-08-24T11:32:08;42.50;35.00;29.00
65383;PMS5003;51986;52.788;41.368;2023-08-24T11:34:35;43.25;35.25;30.50
65383;PMS5003;51986;52.788;41.368;2023-08-24T11:37:02;43.00;36.00;29.00
65383;PMS5003;51986;52.788;41.368;2023-08-24T11:39:29;43.00;35.50;28.00
65383;PMS5003;51986;52.788;41.368;2023-08-24T11:41:59;42.25;35.50;28.00
65383;PMS5003;51986;52.788;41.368;2023-08-24T11:44:44;43.00;36.00;30.25
65383;PMS5003;51986;52.788;41.368;2023-08-24T11:47:15;43.75;36.00;30.75
65383;PMS5003;51986;52.788;41.368;2023-08-24T11:49:42;45.00;37.00;31.00
65383;PMS5003;51986;52.788;41.368;2023-08-24T11:52:10;43.00;36.00;29.00
65383;PMS5003;51986;52.788;41.368;2023-08-24T11:54:37;45.00;37.50;30.50
65383;PMS5003;51986;52.788;41.368;2023-08-24T11:57:07;43.50;36.25;30.00
65383;PMS5003;51986;52.788;41.368;2023-08-24T11:59:36;43.00;36.00;29.00
65383;PMS5003;51986;52.788;41.368;2023-08-24T12:02:03;42.50;35.00;29.00
65383;PMS5003;51986;52.788;41.368;2023-08-24T12:04:41;42.00;36.00;29.00
65383;PMS5003;51986;52.788;41.368;2023-08-24T12:07:13;42.50;35.00;29.25
65383;PMS5003;51986;52.788;41.368;2023-08-24T12:09:41;45.00;38.00;31.75
65383;PMS5003;51986;52.788;41.368;2023-08-24T12:12:15;43.75;36.00;30.75
65383;PMS5003;51986;52.788;41.368;2023-08-24T12:14:43;43.00;36.00;30.00
65383;PMS5003;51986;52.788;41.368;2023-08-24T12:17:11;42.25;35.00;29.50
65383;PMS5003;51986;52.788;41.368;2023-08-24T12:19:45;43.00;35.00;29.00
65383;PMS5003;51986;52.788;41.368;2023-08-24T12:22:24;43.75;37.00;29.50
65383;PMS5003;51986;52.788;41.368;2023-08-24T12:24:51;42.00;34.25;29.00
65383;PMS5003;51986;52.788;41.368;2023-08-24T12:27:19;42.00;35.00;29.00
65383;PMS5003;51986;52.788;41.368;2023-08-24T12:29:49;42.00;35.00;29.00
65383;PMS5003;51986;52.788;41.368;2023-08-24T12:32:17;42.00;35.00;27.00
65383;PMS5003;51986;52.788;41.368;2023-08-24T12:34:48;43.50;35.00;28.75
65383;PMS5003;51986;52.788;41.368;2023-08-24T12:37:15;42.00;35.00;29.00
65383;PMS5003;51986;52.788;41.368;2023-08-24T12:39:42;42.00;34.00;28.00
65383;PMS5003;51986;52.788;41.368;2023-08-24T12:42:09;44.00;37.00;29.00
65383;PMS5003;51986;52.788;41.368;2023-08-24T12:44:36;42.00;34.25;28.25
65383;PMS5003;51986;52.788;41.368;2023-08-24T12:47:03;41.00;34.00;27.00
65383;PMS5003;51986;52.788;41.368;2023-08-24T12:49:30;40.00;34.00;26.00
65383;PMS5003;51986;52.788;41.368;2023-08-24T12:51:57;40.00;34.00;26.00
65383;PMS5003;51986;52.788;41.368;2023-08-24T12:54:24;41.75;34.00;27.75
65383;PMS5003;51986;52.788;41.368;2023-08-24T12:56:52;41.25;34.00;27.00
65383;PMS5003;51986;52.788;41.368;2023-08-24T12:59:18;40.00;33.00;26.00
65383;PMS5003;51986;52.788;41.368;2023-08-24T13:01:45;42.00;34.25;27.75
65383;PMS5003;51986;52.788;41.368;2023-08-24T13:04:12;42.00;34.00;28.00
65383;PMS5003;51986;52.788;41.368;2023-08-24T13:06:39;43.50;36.00;29.25
65383;PMS5003;51986;52.788;41.368;2023-08-24T13:09:06;43.50;36.00;30.00
65383;PMS5003;51986;52.788;41.368;2023-08-24T13:11:33;43.00;35.00;29.50
65383;PMS5003;51986;52.788;41.368;2023-08-24T13:14:00;42.00;35.00;29.00
65383;PMS5003;51986;52.788;41.368;2023-08-24T13:16:27;44.00;37.00;32.00
65383;PMS5003;51986;52.788;41.368;2023-08-24T13:18:54;43.00;35.75;30.00
65383;PMS5003;51986;52.788;41.368;2023-08-24T13:21:21;43.50;36.00;29.50
65383;PMS5003;51986;52.788;41.368;2023-08-24T13:23:48;44.50;36.00;30.00
65383;PMS5003;51986;52.788;41.368;2023-08-24T13:26:19;43.00;35.00;28.50
65383;PMS5003;51986;52.788;41.368;2023-08-24T13:28:47;42.25;35.00;29.00
65383;PMS5003;51986;52.788;41.368;2023-08-24T13:31:15;43.00;35.25;29.00
65383;PMS5003;51986;52.788;41.368;2023-08-24T13:33:42;42.25;35.00;29.25
65383;PMS5003;51986;52.788;41.368;2023-08-24T13:36:10;43.00;34.00;29.00
65383;PMS5003;51986;52.788;41.368;2023-08-24T13:38:37;44.00;37.00;30.00
65383;PMS5003;51986;52.788;41.368;2023-08-24T13:41:04;44.00;37.00;30.00
65383;PMS5003;51986;52.788;41.368;2023-08-24T13:43:31;42.00;35.00;28.00
65383;PMS5003;51986;52.788;41.368;2023-08-24T13:45:58;42.00;35.00;27.00
65383;PMS5003;51986;52.788;41.368;2023-08-24T13:48:29;40.75;34.00;26.00